Time;durP1;ratioP1;P1;durP2;ratioP2;P2;SDS_P1;SDS_P2;PMS_P1;PMS_P2;Temp;Humidity;BMP_temperature;BMP_pressure;BME280_temperature;BME280_humidity;BME280_pressure;Samples;Min_cycle;Max_cycle;Signal;HPM_P1;HPM_P2
2021/01/25 00:01:29;;;;;;;;;;;;;;;;;;5114107;28;19923;-66
2021/01/25 00:03:56;;;;;;;;;;;;;;;;;;5113871;28;19923;-65
2021/01/25 00:06:22;;;;;;;;;;;;;;;;;;5114052;28;20332;-65
2021/01/25 00:08:49;;;;;;;;;;;;;;;;;;5113644;28;19972;-65
2021/01/25 00:11:15;;;;;;;;;;;;;;;;;;5114040;28;20418;-66
2021/01/25 00:13:42;;;;;;;;;;;;;;;;;;5114601;28;19930;-65
2021/01/25 00:16:08;;;;;;;;;;;;;;;;;;5114703;28;19924;-66
2021/01/25 00:18:35;;;;;;;;;;;;;;;;;;5114567;28;19924;-66
2021/01/25 00:21:01;;;;;;;;;;;;;;;;;;5111644;28;19977;-65
2021/01/25 00:23:28;;;;;;;;;;;;;;;;;;5096747;28;19927;-65
2021/01/25 00:25:54;;;;;;;;;;;;;;;;;;5113471;28;19923;-66
2021/01/25 00:28:21;;;;;;;;;;;;;;;;;;5112799;28;19931;-65
2021/01/25 00:30:47;;;;;;;;;;;;;;;;;;5113483;28;20002;-65
2021/01/25 00:33:14;;;;;;;;;;;;;;;;;;5113796;28;19924;-66
2021/01/25 00:35:40;;;;;;;;;;;;;;;;;;5113253;28;19924;-66
2021/01/25 00:38:07;;;;;;;;;;;;;;;;;;5113575;28;19962;-66
2021/01/25 00:40:34;;;;;;;;;;;;;;;;;;5112757;28;20007;-65
2021/01/25 00:43:01;;;;;;;;;;;;;;;;;;5113319;28;20011;-65
2021/01/25 00:45:27;;;;;;;;;;;;;;;;;;5111499;28;19930;-65
2021/01/25 00:47:53;;;;;;;;;;;;;;;;;;5104999;28;19930;-65
2021/01/25 00:50:20;;;;;;;;;;;;;;;;;;5113048;28;19924;-66
2021/01/25 00:52:46;;;;;;;;;;;;;;;;;;5112434;28;19928;-64
2021/01/25 00:55:14;;;;;;;;;;;;;;;;;;5112622;28;19930;-65
2021/01/25 00:57:40;;;;;;;;;;;;;;;;;;5113400;28;19931;-65
2021/01/25 01:00:08;;;;;;;;;;;;;;;;;;5112830;28;19928;-66
2021/01/25 01:02:35;;;;;;;;;;;;;;;;;;5113700;28;19928;-65
2021/01/25 01:05:01;;;;;;;;;;;;;;;;;;5112993;28;19931;-66
2021/01/25 01:07:28;;;;;;;;;;;;;;;;;;5113169;28;19974;-65
2021/01/25 01:09:54;;;;;;;;;;;;;;;;;;5116384;28;19923;-66
2021/01/25 01:12:21;;;;;;;;;;;;;;;;;;5117074;28;19924;-65
2021/01/25 01:14:47;;;;;;;;;;;;;;;;;;5113997;28;19927;-66
2021/01/25 01:17:14;;;;;;;;;;;;;;;;;;5105887;28;19947;-65
2021/01/25 01:19:40;;;;;;;;;;;;;;;;;;5116557;28;19924;-66
2021/01/25 01:22:07;;;;;;;;;;;;;;;;;;5116923;28;20341;-65
2021/01/25 01:24:33;;;;;;;;;;;;;;;;;;5105865;28;19970;-65
2021/01/25 01:27:00;;;;;;;;;;;;;;;;;;5112498;28;20376;-65
2021/01/25 01:29:26;;;;;;;;;;;;;;;;;;5108024;22;19932;-68
2021/01/25 01:31:53;;;;;;;;;;;;;;;;;;5095838;28;20387;-68
2021/01/25 01:34:19;;;;;;;;;;;;;;;;;;5083093;28;19931;-68
2021/01/25 01:36:46;;;;;;;;;;;;;;;;;;5082140;28;19932;-68
2021/01/25 01:39:12;;;;;;;;;;;;;;;;;;5079528;28;19924;-70
2021/01/25 01:41:39;;;;;;;;;;;;;;;;;;5070885;28;19978;-70
2021/01/25 01:44:05;;;;;;;;;;;;;;;;;;5066006;28;19924;-66
2021/01/25 01:46:32;;;;;;;;;;;;;;;;;;5072721;28;19942;-67
2021/01/25 01:48:58;;;;;;;;;;;;;;;;;;5054765;28;19925;-68
2021/01/25 01:51:25;;;;;;;;;;;;;;;;;;5066088;28;19928;-67
2021/01/25 01:53:51;;;;;;;;;;;;;;;;;;5067393;28;19925;-66
2021/01/25 01:56:18;;;;;;;;;;;;;;;;;;5074982;28;19924;-67
2021/01/25 01:58:44;;;;;;;;;;;;;;;;;;5067345;28;19928;-67
2021/01/25 02:01:11;;;;;;;;;;;;;;;;;;5070148;28;20301;-67
2021/01/25 02:03:37;;;;;;;;;;;;;;;;;;5075002;28;19924;-66
2021/01/25 02:06:04;;;;;;;;;;;;;;;;;;5070710;28;19931;-66
2021/01/25 02:08:30;;;;;;;;;;;;;;;;;;5068710;28;19964;-67
2021/01/25 02:10:56;;;;;;;;;;;;;;;;;;5071069;28;20011;-67
2021/01/25 02:13:23;;;;;;;;;;;;;;;;;;5074733;28;19925;-67
2021/01/25 02:15:50;;;;;;;;;;;;;;;;;;5063357;28;20389;-67
2021/01/25 02:18:16;;;;;;;;;;;;;;;;;;5072900;28;19924;-66
2021/01/25 02:20:43;;;;;;;;;;;;;;;;;;5059856;28;19924;-66
2021/01/25 02:23:09;;;;;;;;;;;;;;;;;;5059942;28;19924;-68
2021/01/25 02:25:36;;;;;;;;;;;;;;;;;;5065561;28;19982;-66
2021/01/25 02:28:02;;;;;;;;;;;;;;;;;;5072781;28;19925;-66
2021/01/25 02:30:29;;;;;;;;;;;;;;;;;;5074009;28;19924;-66
2021/01/25 02:32:55;;;;;;;;;;;;;;;;;;5071375;28;20403;-67
2021/01/25 02:35:22;;;;;;;;;;;;;;;;;;5074164;28;20438;-67
2021/01/25 02:37:48;;;;;;;;;;;;;;;;;;5067135;28;20007;-67
2021/01/25 02:40:15;;;;;;;;;;;;;;;;;;5073898;28;20447;-67
2021/01/25 02:42:42;;;;;;;;;;;;;;;;;;5064000;28;20465;-67
2021/01/25 02:45:08;;;;;;;;;;;;;;;;;;5070233;28;20000;-67
2021/01/25 02:47:34;;;;;;;;;;;;;;;;;;5064252;28;19958;-67
2021/01/25 02:50:01;;;;;;;;;;;;;;;;;;5067430;28;19955;-67
2021/01/25 02:52:27;;;;;;;;;;;;;;;;;;5063209;28;20431;-67
2021/01/25 02:54:54;;;;;;;;;;;;;;;;;;5082277;28;19984;-67
2021/01/25 02:57:20;;;;;;;;;;;;;;;;;;5066654;28;20416;-67
2021/01/25 02:59:47;;;;;;;;;;;;;;;;;;5067650;28;19929;-67
2021/01/25 03:02:13;;;;;;;;;;;;;;;;;;5063716;28;20502;-67
2021/01/25 03:04:40;;;;;;;;;;;;;;;;;;5065600;28;20420;-67
2021/01/25 03:07:06;;;;;;;;;;;;;;;;;;5070468;28;19928;-68
2021/01/25 03:09:33;;;;;;;;;;;;;;;;;;5070598;28;20452;-67
2021/01/25 03:11:59;;;;;;;;;;;;;;;;;;5066450;28;20023;-67
2021/01/25 03:14:26;;;;;;;;;;;;;;;;;;5070574;28;20449;-67
2021/01/25 03:16:52;;;;;;;;;;;;;;;;;;5071638;28;19983;-68
2021/01/25 03:19:19;;;;;;;;;;;;;;;;;;5079306;28;20015;-69
2021/01/25 03:21:45;;;;;;;;;;;;;;;;;;5060284;28;20299;-67
2021/01/25 03:24:12;;;;;;;;;;;;;;;;;;5066076;28;19971;-67
2021/01/25 03:26:38;;;;;;;;;;;;;;;;;;5065413;28;19925;-67
2021/01/25 03:29:05;;;;;;;;;;;;;;;;;;5070143;28;19928;-67
2021/01/25 03:31:31;;;;;;;;;;;;;;;;;;5071498;28;20314;-67
2021/01/25 03:33:58;;;;;;;;;;;;;;;;;;5060827;28;19968;-67
2021/01/25 03:36:24;;;;;;;;;;;;;;;;;;5067454;28;19984;-67
2021/01/25 03:38:51;;;;;;;;;;;;;;;;;;5067425;28;20307;-68
2021/01/25 03:41:17;;;;;;;;;;;;;;;;;;5066235;28;19930;-68
2021/01/25 03:43:44;;;;;;;;;;;;;;;;;;5068328;28;20001;-67
2021/01/25 03:46:10;;;;;;;;;;;;;;;;;;5069392;28;19924;-67
2021/01/25 03:48:37;;;;;;;;;;;;;;;;;;5062865;28;20392;-67
2021/01/25 03:51:03;;;;;;;;;;;;;;;;;;5066186;28;19924;-67
2021/01/25 03:53:30;;;;;;;;;;;;;;;;;;5066320;28;20453;-67
2021/01/25 03:55:56;;;;;;;;;;;;;;;;;;5072351;28;19925;-67
2021/01/25 03:58:23;;;;;;;;;;;;;;;;;;5072060;28;20381;-67
2021/01/25 04:00:49;;;;;;;;;;;;;;;;;;5069338;28;20003;-67
2021/01/25 04:03:16;;;;;;;;;;;;;;;;;;5069125;28;19924;-68
2021/01/25 04:05:42;;;;;;;;;;;;;;;;;;5067544;28;20372;-67
2021/01/25 04:08:09;;;;;;;;;;;;;;;;;;5070920;28;20011;-68
2021/01/25 04:10:35;;;;;;;;;;;;;;;;;;5071209;28;20019;-67
2021/01/25 04:13:02;;;;;;;;;;;;;;;;;;5069086;28;20295;-67
2021/01/25 04:15:28;;;;;;;;;;;;;;;;;;5063370;28;19931;-67
2021/01/25 04:17:55;;;;;;;;;;;;;;;;;;5062094;28;19967;-67
2021/01/25 04:20:21;;;;;;;;;;;;;;;;;;5065425;28;19928;-68
2021/01/25 04:22:48;;;;;;;;;;;;;;;;;;5066547;28;19924;-68
2021/01/25 04:25:14;;;;;;;;;;;;;;;;;;5072012;28;19981;-69
2021/01/25 04:27:41;;;;;;;;;;;;;;;;;;5062074;28;19932;-67
2021/01/25 04:30:07;;;;;;;;;;;;;;;;;;5064908;28;19925;-67
2021/01/25 04:32:35;;;;;;;;;;;;;;;;;;5068050;28;19928;-67
2021/01/25 04:35:02;;;;;;;;;;;;;;;;;;5061181;28;20329;-67
2021/01/25 04:37:28;;;;;;;;;;;;;;;;;;5068953;28;20467;-67
2021/01/25 04:39:55;;;;;;;;;;;;;;;;;;5069901;28;19978;-67
2021/01/25 04:42:21;;;;;;;;;;;;;;;;;;5060208;28;20342;-67
2021/01/25 04:44:48;;;;;;;;;;;;;;;;;;5067478;28;19939;-67
2021/01/25 04:47:14;;;;;;;;;;;;;;;;;;5064588;28;19929;-67
2021/01/25 04:49:41;;;;;;;;;;;;;;;;;;5071929;28;19925;-67
2021/01/25 04:52:07;;;;;;;;;;;;;;;;;;5065791;28;19932;-67
2021/01/25 04:54:34;;;;;;;;;;;;;;;;;;5075657;28;19928;-68
2021/01/25 04:57:00;;;;;;;;;;;;;;;;;;5073248;28;20023;-68
2021/01/25 04:59:27;;;;;;;;;;;;;;;;;;5067557;28;20376;-68
2021/01/25 05:01:53;;;;;;;;;;;;;;;;;;5066779;28;19932;-67
2021/01/25 05:04:20;;;;;;;;;;;;;;;;;;5061183;28;19925;-67
2021/01/25 05:06:46;;;;;;;;;;;;;;;;;;5059570;28;19935;-67
2021/01/25 05:09:13;;;;;;;;;;;;;;;;;;5068895;28;19928;-67
2021/01/25 05:11:39;;;;;;;;;;;;;;;;;;5069095;28;19931;-70
2021/01/25 05:14:06;;;;;;;;;;;;;;;;;;5069928;28;19931;-67
2021/01/25 05:16:32;;;;;;;;;;;;;;;;;;5067631;28;19973;-67
2021/01/25 05:18:59;;;;;;;;;;;;;;;;;;5068076;28;19975;-67
2021/01/25 05:21:25;;;;;;;;;;;;;;;;;;5065230;28;19931;-67
2021/01/25 05:23:51;;;;;;;;;;;;;;;;;;5063829;28;19931;-68
2021/01/25 05:26:18;;;;;;;;;;;;;;;;;;5064653;28;19931;-67
2021/01/25 05:28:44;;;;;;;;;;;;;;;;;;5069349;28;19925;-67
2021/01/25 05:31:11;;;;;;;;;;;;;;;;;;5068808;28;19925;-68
2021/01/25 05:33:38;;;;;;;;;;;;;;;;;;5071375;28;19924;-67
2021/01/25 05:36:04;;;;;;;;;;;;;;;;;;5060873;28;19973;-67
2021/01/25 05:38:31;;;;;;;;;;;;;;;;;;5071217;28;19924;-67
2021/01/25 05:40:57;;;;;;;;;;;;;;;;;;5063296;28;20338;-67
2021/01/25 05:43:24;;;;;;;;;;;;;;;;;;5065936;28;19955;-67
2021/01/25 05:45:51;;;;;;;;;;;;;;;;;;5068804;28;19924;-67
2021/01/25 05:48:18;;;;;;;;;;;;;;;;;;5070011;28;19929;-67
2021/01/25 05:50:44;;;;;;;;;;;;;;;;;;5069100;28;19924;-67
2021/01/25 05:53:11;;;;;;;;;;;;;;;;;;5071962;28;19924;-67
2021/01/25 05:55:37;;;;;;;;;;;;;;;;;;5060998;28;20050;-67
2021/01/25 05:58:04;;;;;;;;;;;;;;;;;;5064049;28;19925;-68
2021/01/25 06:00:31;;;;;;;;;;;;;;;;;;5064904;28;19932;-68
2021/01/25 06:02:58;;;;;;;;;;;;;;;;;;5076070;28;19935;-68
2021/01/25 06:05:24;;;;;;;;;;;;;;;;;;5080217;28;19931;-68
2021/01/25 06:07:51;;;;;;;;;;;;;;;;;;5077240;28;19978;-68
2021/01/25 06:10:17;;;;;;;;;;;;;;;;;;5079767;28;19985;-67
2021/01/25 06:12:44;;;;;;;;;;;;;;;;;;5081356;28;19928;-68
2021/01/25 06:15:10;;;;;;;;;;;;;;;;;;5074162;28;20015;-68
2021/01/25 06:17:37;;;;;;;;;;;;;;;;;;5062090;28;19931;-68
2021/01/25 06:20:03;;;;;;;;;;;;;;;;;;5082223;28;20003;-68
2021/01/25 06:22:30;;;;;;;;;;;;;;;;;;5082128;28;20018;-68
2021/01/25 06:24:56;;;;;;;;;;;;;;;;;;5081243;28;19928;-68
2021/01/25 06:27:23;;;;;;;;;;;;;;;;;;5071627;28;20400;-68
2021/01/25 06:29:49;;;;;;;;;;;;;;;;;;5072945;28;19924;-68
2021/01/25 06:32:16;;;;;;;;;;;;;;;;;;5071128;28;19924;-68
2021/01/25 06:34:42;;;;;;;;;;;;;;;;;;5067954;28;19924;-68
2021/01/25 06:37:09;;;;;;;;;;;;;;;;;;5061802;28;19932;-68
2021/01/25 06:39:35;;;;;;;;;;;;;;;;;;5064563;28;19935;-67
2021/01/25 06:42:02;;;;;;;;;;;;;;;;;;5069316;28;19924;-68
2021/01/25 06:44:29;;;;;;;;;;;;;;;;;;5063812;28;19967;-67
2021/01/25 06:46:55;;;;;;;;;;;;;;;;;;5071570;28;19925;-68
2021/01/25 06:49:22;;;;;;;;;;;;;;;;;;5066974;28;20043;-68
2021/01/25 06:51:48;;;;;;;;;;;;;;;;;;5066008;28;19947;-68
2021/01/25 06:54:15;;;;;;;;;;;;;;;;;;5063484;28;19924;-68
2021/01/25 06:56:41;;;;;;;;;;;;;;;;;;5060979;28;20373;-68
2021/01/25 06:59:08;;;;;;;;;;;;;;;;;;5068704;28;19924;-68
2021/01/25 07:01:34;;;;;;;;;;;;;;;;;;5059441;28;19929;-67
2021/01/25 07:04:01;;;;;;;;;;;;;;;;;;5062429;28;19960;-68
2021/01/25 07:06:27;;;;;;;;;;;;;;;;;;5063553;28;19924;-68
2021/01/25 07:08:54;;;;;;;;;;;;;;;;;;5065294;28;19990;-67
2021/01/25 07:11:20;;;;;;;;;;;;;;;;;;5058541;28;19925;-68
2021/01/25 07:13:47;;;;;;;;;;;;;;;;;;5064395;28;19925;-68
2021/01/25 07:16:13;;;;;;;;;;;;;;;;;;5064313;28;19928;-68
2021/01/25 07:18:40;;;;;;;;;;;;;;;;;;5066432;28;19936;-66
2021/01/25 07:21:06;;;;;;;;;;;;;;;;;;5063133;28;19924;-66
2021/01/25 07:23:33;;;;;;;;;;;;;;;;;;5062058;28;19931;-67
2021/01/25 07:25:59;;;;;;;;;;;;;;;;;;5056155;28;20377;-66
2021/01/25 07:28:26;;;;;;;;;;;;;;;;;;5080489;22;19928;-65
2021/01/25 07:30:52;;;;;;;;;;;;;;;;;;5087403;28;19924;-66
2021/01/25 07:33:19;;;;;;;;;;;;;;;;;;5090610;28;20022;-65
2021/01/25 07:35:45;;;;;;;;;;;;;;;;;;5095287;28;20264;-65
2021/01/25 07:38:12;;;;;;;;;;;;;;;;;;5088772;28;19928;-65
2021/01/25 07:40:38;;;;;;;;;;;;;;;;;;5077024;28;19929;-66
2021/01/25 07:43:05;;;;;;;;;;;;;;;;;;5079686;28;19936;-69
2021/01/25 07:45:31;;;;;;;;;;;;;;;;;;5074176;28;19924;-66
2021/01/25 07:47:58;;;;;;;;;;;;;;;;;;5075099;28;19923;-65
2021/01/25 07:50:24;;;;;;;;;;;;;;;;;;5072800;28;19929;-65
2021/01/25 07:52:51;;;;;;;;;;;;;;;;;;5066409;28;19929;-66
2021/01/25 07:55:17;;;;;;;;;;;;;;;;;;5071240;28;20019;-65
2021/01/25 07:57:44;;;;;;;;;;;;;;;;;;5068650;28;20014;-68
2021/01/25 08:00:10;;;;;;;;;;;;;;;;;;5063829;28;20384;-65
2021/01/25 08:02:37;;;;;;;;;;;;;;;;;;5063070;28;19985;-65
2021/01/25 08:05:05;;;;;;;;;;;;;;;;;;5069049;28;19927;-66
2021/01/25 08:07:31;;;;;;;;;;;;;;;;;;5069150;28;19924;-65
2021/01/25 08:09:59;;;;;;;;;;;;;;;;;;5071094;28;20039;-66
2021/01/25 08:12:25;;;;;;;;;;;;;;;;;;5068835;28;20018;-66
2021/01/25 08:14:52;;;;;;;;;;;;;;;;;;5067911;28;19924;-65
2021/01/25 08:17:18;;;;;;;;;;;;;;;;;;5068194;28;19928;-65
2021/01/25 08:19:45;;;;;;;;;;;;;;;;;;5068618;28;19924;-65
2021/01/25 08:22:11;;;;;;;;;;;;;;;;;;5070451;28;19978;-66
2021/01/25 08:24:38;;;;;;;;;;;;;;;;;;5068410;28;19924;-67
2021/01/25 08:27:04;;;;;;;;;;;;;;;;;;5069728;28;20304;-66
2021/01/25 08:29:31;;;;;;;;;;;;;;;;;;5070608;28;19925;-65
2021/01/25 08:31:57;;;;;;;;;;;;;;;;;;5070447;28;20445;-65
2021/01/25 08:34:24;;;;;;;;;;;;;;;;;;5070159;28;19985;-65
2021/01/25 08:36:50;;;;;;;;;;;;;;;;;;5070279;28;19970;-65
2021/01/25 08:39:16;;;;;;;;;;;;;;;;;;5070126;28;19981;-66
2021/01/25 08:41:43;;;;;;;;;;;;;;;;;;5070977;28;19925;-66
2021/01/25 08:44:09;;;;;;;;;;;;;;;;;;5069083;28;19924;-65
2021/01/25 08:46:38;;;;;;;;;;;;;;;;;;5067974;28;19931;-65
2021/01/25 08:49:04;;;;;;;;;;;;;;;;;;5070979;28;19925;-66
2021/01/25 08:51:31;;;;;;;;;;;;;;;;;;5071179;28;19930;-65
2021/01/25 08:53:58;;;;;;;;;;;;;;;;;;5068816;28;19924;-68
2021/01/25 08:56:24;;;;;;;;;;;;;;;;;;5068877;28;20451;-65
2021/01/25 08:58:51;;;;;;;;;;;;;;;;;;5070165;28;20319;-65
2021/01/25 09:01:17;;;;;;;;;;;;;;;;;;5068052;28;19924;-65
2021/01/25 09:03:44;;;;;;;;;;;;;;;;;;5065988;28;19924;-65
2021/01/25 09:06:10;;;;;;;;;;;;;;;;;;5070702;28;19924;-64
2021/01/25 09:08:36;;;;;;;;;;;;;;;;;;5069821;28;19932;-65
2021/01/25 09:11:03;;;;;;;;;;;;;;;;;;5071131;28;19924;-65
2021/01/25 09:13:30;;;;;;;;;;;;;;;;;;5068036;28;19968;-65
2021/01/25 09:15:56;;;;;;;;;;;;;;;;;;5067055;28;20022;-65
2021/01/25 09:18:22;;;;;;;;;;;;;;;;;;5073327;28;20300;-66
2021/01/25 09:20:49;;;;;;;;;;;;;;;;;;5068782;28;20031;-66
2021/01/25 09:23:18;;;;;;;;;;;;;;;;;;5064052;28;19975;-66
2021/01/25 09:25:44;;;;;;;;;;;;;;;;;;5069627;28;20292;-66
2021/01/25 09:28:11;;;;;;;;;;;;;;;;;;5068354;28;19924;-65
2021/01/25 09:30:37;;;;;;;;;;;;;;;;;;5072556;28;19930;-65
2021/01/25 09:33:04;;;;;;;;;;;;;;;;;;5073979;28;21296;-66
2021/01/25 09:35:30;;;;;;;;;;;;;;;;;;5073590;28;19924;-65
2021/01/25 09:37:57;;;;;;;;;;;;;;;;;;5073013;28;19929;-66
2021/01/25 09:40:23;;;;;;;;;;;;;;;;;;5071752;28;20337;-65
2021/01/25 09:42:50;;;;;;;;;;;;;;;;;;5071691;28;20189;-66
2021/01/25 09:45:16;;;;;;;;;;;;;;;;;;5080420;28;19977;-66
2021/01/25 09:47:43;;;;;;;;;;;;;;;;;;5073135;28;20011;-65
2021/01/25 09:50:10;;;;;;;;;;;;;;;;;;5074296;28;20359;-65
2021/01/25 09:52:37;;;;;;;;;;;;;;;;;;5074695;28;19924;-65
2021/01/25 09:55:03;;;;;;;;;;;;;;;;;;5071628;28;20011;-65
2021/01/25 09:57:30;;;;;;;;;;;;;;;;;;5073657;28;20025;-65
2021/01/25 09:59:56;;;;;;;;;;;;;;;;;;5071605;28;20423;-66
2021/01/25 10:02:23;;;;;;;;;;;;;;;;;;5074508;28;19924;-65
2021/01/25 10:04:49;;;;;;;;;;;;;;;;;;5061770;28;20373;-65
2021/01/25 10:07:16;;;;;;;;;;;;;;;;;;5073098;28;19932;-65
2021/01/25 10:09:42;;;;;;;;;;;;;;;;;;5072022;28;20418;-65
2021/01/25 10:12:09;;;;;;;;;;;;;;;;;;5071967;28;19934;-66
2021/01/25 10:14:35;;;;;;;;;;;;;;;;;;5071781;28;20311;-66
2021/01/25 10:17:02;;;;;;;;;;;;;;;;;;5072209;28;19970;-66
2021/01/25 10:19:28;;;;;;;;;;;;;;;;;;5069375;28;19925;-65
2021/01/25 10:21:55;;;;;;;;;;;;;;;;;;5073917;28;19929;-65
2021/01/25 10:24:21;;;;;;;;;;;;;;;;;;5071427;28;20355;-67
2021/01/25 10:26:48;;;;;;;;;;;;;;;;;;5067925;28;20027;-65
2021/01/25 10:29:14;;;;;;;;;;;;;;;;;;5064846;28;19947;-65
2021/01/25 10:31:41;;;;;;;;;;;;;;;;;;5072549;28;19925;-66
2021/01/25 10:34:07;;;;;;;;;;;;;;;;;;5065787;28;19924;-66
2021/01/25 10:36:34;;;;;;;;;;;;;;;;;;5072988;28;19924;-65
2021/01/25 10:39:00;;;;;;;;;;;;;;;;;;5071857;28;20011;-66
2021/01/25 10:41:27;;;;;;;;;;;;;;;;;;5071876;28;20022;-67
2021/01/25 10:43:53;;;;;;;;;;;;;;;;;;5068733;28;19933;-65
2021/01/25 10:46:19;;;;;;;;;;;;;;;;;;5072086;28;19931;-65
2021/01/25 10:48:46;;;;;;;;;;;;;;;;;;5072166;28;20034;-66
2021/01/25 10:51:12;;;;;;;;;;;;;;;;;;5072636;28;20340;-69
2021/01/25 10:53:39;;;;;;;;;;;;;;;;;;5069410;28;19924;-66
2021/01/25 10:56:05;;;;;;;;;;;;;;;;;;5068346;28;19969;-65
2021/01/25 10:58:33;;;;;;;;;;;;;;;;;;5063021;28;20308;-65
2021/01/25 11:01:00;;;;;;;;;;;;;;;;;;5061634;28;20340;-66
2021/01/25 11:03:26;;;;;;;;;;;;;;;;;;5071298;28;19931;-68
2021/01/25 11:05:53;;;;;;;;;;;;;;;;;;5068323;28;19932;-66
2021/01/25 11:08:19;;;;;;;;;;;;;;;;;;5072468;28;20011;-67
2021/01/25 11:10:46;;;;;;;;;;;;;;;;;;5070429;28;20011;-65
2021/01/25 11:13:12;;;;;;;;;;;;;;;;;;5067406;28;19924;-65
2021/01/25 11:15:40;;;;;;;;;;;;;;;;;;5070299;28;20064;-66
2021/01/25 11:18:06;;;;;;;;;;;;;;;;;;5066859;28;19931;-65
2021/01/25 11:20:33;;;;;;;;;;;;;;;;;;5069096;28;19932;-66
2021/01/25 11:22:59;;;;;;;;;;;;;;;;;;5069471;28;20306;-65
2021/01/25 11:25:26;;;;;;;;;;;;;;;;;;5065868;28;19930;-65
2021/01/25 11:27:52;;;;;;;;;;;;;;;;;;5067249;28;19925;-65
2021/01/25 11:30:19;;;;;;;;;;;;;;;;;;5067391;28;20453;-66
2021/01/25 11:32:45;;;;;;;;;;;;;;;;;;5069601;28;19931;-66
2021/01/25 11:35:12;;;;;;;;;;;;;;;;;;5067696;28;20326;-65
2021/01/25 11:37:38;;;;;;;;;;;;;;;;;;5073411;28;19928;-67
2021/01/25 11:40:05;;;;;;;;;;;;;;;;;;5072123;28;20345;-66
2021/01/25 11:42:31;;;;;;;;;;;;;;;;;;5066389;28;19969;-67
2021/01/25 11:44:58;;;;;;;;;;;;;;;;;;5063001;28;20452;-67
2021/01/25 11:47:24;;;;;;;;;;;;;;;;;;5070653;28;19985;-70
2021/01/25 11:49:51;;;;;;;;;;;;;;;;;;5064987;28;20311;-65
2021/01/25 11:52:17;;;;;;;;;;;;;;;;;;5069327;28;19930;-65
2021/01/25 11:54:44;;;;;;;;;;;;;;;;;;5068796;28;20019;-66
2021/01/25 11:57:10;;;;;;;;;;;;;;;;;;5070452;28;19924;-66
2021/01/25 11:59:37;;;;;;;;;;;;;;;;;;5070887;28;19962;-67
2021/01/25 12:02:03;;;;;;;;;;;;;;;;;;5072251;28;20299;-66
2021/01/25 12:04:30;;;;;;;;;;;;;;;;;;5058168;28;20503;-66
2021/01/25 12:06:56;;;;;;;;;;;;;;;;;;5066797;28;19931;-67
2021/01/25 12:09:23;;;;;;;;;;;;;;;;;;5066128;28;19931;-66
2021/01/25 12:11:50;;;;;;;;;;;;;;;;;;5065034;28;19933;-67
2021/01/25 12:14:16;;;;;;;;;;;;;;;;;;5067414;28;20297;-66
2021/01/25 12:16:43;;;;;;;;;;;;;;;;;;5062663;28;19928;-66
2021/01/25 12:19:09;;;;;;;;;;;;;;;;;;5067055;28;19941;-66
2021/01/25 12:21:36;;;;;;;;;;;;;;;;;;5069729;28;20073;-66
2021/01/25 12:24:03;;;;;;;;;;;;;;;;;;5072445;28;19924;-66
2021/01/25 12:26:29;;;;;;;;;;;;;;;;;;5068773;28;19925;-65
2021/01/25 12:28:56;;;;;;;;;;;;;;;;;;5063650;28;20347;-66
2021/01/25 12:31:24;;;;;;;;;;;;;;;;;;5062799;28;19925;-66
2021/01/25 12:33:50;;;;;;;;;;;;;;;;;;5059337;28;19955;-66
2021/01/25 12:36:17;;;;;;;;;;;;;;;;;;5069080;28;20357;-66
2021/01/25 12:38:43;;;;;;;;;;;;;;;;;;5068522;28;19932;-66
2021/01/25 12:41:10;;;;;;;;;;;;;;;;;;5068003;28;19925;-66
2021/01/25 12:43:37;;;;;;;;;;;;;;;;;;5055673;28;19924;-66
2021/01/25 12:46:04;;;;;;;;;;;;;;;;;;5065784;28;20380;-66
2021/01/25 12:48:30;;;;;;;;;;;;;;;;;;5066630;28;19931;-66
2021/01/25 12:50:57;;;;;;;;;;;;;;;;;;5066221;28;19933;-67
2021/01/25 12:53:24;;;;;;;;;;;;;;;;;;5058215;28;19931;-67
2021/01/25 12:55:52;;;;;;;;;;;;;;;;;;5063241;28;19932;-67
2021/01/25 12:58:18;;;;;;;;;;;;;;;;;;5061268;28;20337;-66
2021/01/25 13:00:45;;;;;;;;;;;;;;;;;;5062893;28;20293;-66
2021/01/25 13:03:11;;;;;;;;;;;;;;;;;;5057072;28;19931;-66
2021/01/25 13:05:38;;;;;;;;;;;;;;;;;;5064386;28;19942;-65
2021/01/25 13:08:04;;;;;;;;;;;;;;;;;;5063720;28;19986;-66
2021/01/25 13:10:31;;;;;;;;;;;;;;;;;;5071287;28;19931;-66
2021/01/25 13:12:57;;;;;;;;;;;;;;;;;;5071250;28;19930;-65
2021/01/25 13:15:24;;;;;;;;;;;;;;;;;;5065321;28;20642;-66
2021/01/25 13:17:50;;;;;;;;;;;;;;;;;;5066018;28;19931;-66
2021/01/25 13:20:17;;;;;;;;;;;;;;;;;;5070067;28;19924;-66
2021/01/25 13:22:43;;;;;;;;;;;;;;;;;;5067339;28;19958;-67
2021/01/25 13:25:10;;;;;;;;;;;;;;;;;;5067295;28;19931;-66
2021/01/25 13:27:36;;;;;;;;;;;;;;;;;;5072051;28;19924;-66
2021/01/25 13:30:03;;;;;;;;;;;;;;;;;;5091280;22;20306;-67
2021/01/25 13:32:29;;;;;;;;;;;;;;;;;;5078928;28;19928;-67
2021/01/25 13:34:56;;;;;;;;;;;;;;;;;;5063928;28;19947;-67
2021/01/25 13:37:22;;;;;;;;;;;;;;;;;;5065602;28;20276;-68
2021/01/25 13:39:49;;;;;;;;;;;;;;;;;;5071143;28;19960;-68
2021/01/25 13:42:15;;;;;;;;;;;;;;;;;;5071203;28;19932;-66
2021/01/25 13:44:42;;;;;;;;;;;;;;;;;;5069220;28;20352;-67
2021/01/25 13:47:08;;;;;;;;;;;;;;;;;;5068399;28;19994;-67
2021/01/25 13:49:35;;;;;;;;;;;;;;;;;;5067733;28;19971;-70
2021/01/25 13:52:01;;;;;;;;;;;;;;;;;;5062799;28;20012;-67
2021/01/25 13:54:28;;;;;;;;;;;;;;;;;;5066873;28;20397;-67
2021/01/25 13:56:54;;;;;;;;;;;;;;;;;;5069247;28;19931;-67
2021/01/25 13:59:21;;;;;;;;;;;;;;;;;;5068696;28;19933;-68
2021/01/25 14:01:47;;;;;;;;;;;;;;;;;;5065366;28;20012;-67
2021/01/25 14:04:14;;;;;;;;;;;;;;;;;;5061923;28;20395;-67
2021/01/25 14:06:40;;;;;;;;;;;;;;;;;;5066475;28;19931;-68
2021/01/25 14:09:07;;;;;;;;;;;;;;;;;;5066909;28;19932;-67
2021/01/25 14:11:33;;;;;;;;;;;;;;;;;;5063937;28;19924;-67
2021/01/25 14:14:00;;;;;;;;;;;;;;;;;;5063740;28;19928;-67
2021/01/25 14:16:26;;;;;;;;;;;;;;;;;;5067368;28;20393;-67
2021/01/25 14:18:53;;;;;;;;;;;;;;;;;;5059749;28;19931;-66
2021/01/25 14:21:19;;;;;;;;;;;;;;;;;;5065102;28;19933;-66
2021/01/25 14:23:46;;;;;;;;;;;;;;;;;;5058584;28;20420;-67
2021/01/25 14:26:12;;;;;;;;;;;;;;;;;;5066796;28;19959;-67
2021/01/25 14:28:39;;;;;;;;;;;;;;;;;;5068677;28;19931;-66
2021/01/25 14:31:05;;;;;;;;;;;;;;;;;;5068917;28;19924;-66
2021/01/25 14:33:32;;;;;;;;;;;;;;;;;;5062366;28;19932;-65
2021/01/25 14:35:59;;;;;;;;;;;;;;;;;;5069353;28;20289;-67
2021/01/25 14:38:25;;;;;;;;;;;;;;;;;;5073688;28;19930;-67
2021/01/25 14:40:52;;;;;;;;;;;;;;;;;;5069398;28;19924;-67
2021/01/25 14:43:18;;;;;;;;;;;;;;;;;;5062307;28;19928;-66
2021/01/25 14:45:45;;;;;;;;;;;;;;;;;;5067234;28;19931;-68
2021/01/25 14:48:11;;;;;;;;;;;;;;;;;;5068478;28;19924;-66
2021/01/25 14:50:38;;;;;;;;;;;;;;;;;;5068318;28;19931;-68
2021/01/25 14:53:04;;;;;;;;;;;;;;;;;;5065065;28;19937;-67
2021/01/25 14:55:31;;;;;;;;;;;;;;;;;;5066830;28;19924;-67
2021/01/25 14:57:57;;;;;;;;;;;;;;;;;;5065776;28;20373;-69
2021/01/25 15:00:24;;;;;;;;;;;;;;;;;;5064605;28;19932;-68
2021/01/25 15:02:50;;;;;;;;;;;;;;;;;;5063503;28;20380;-68
2021/01/25 15:05:18;;;;;;;;;;;;;;;;;;5062343;28;20326;-68
2021/01/25 15:07:44;;;;;;;;;;;;;;;;;;5067976;28;19974;-67
2021/01/25 15:10:11;;;;;;;;;;;;;;;;;;5064698;28;20067;-66
2021/01/25 15:12:37;;;;;;;;;;;;;;;;;;5066684;28;19968;-67
2021/01/25 15:15:04;;;;;;;;;;;;;;;;;;5059328;28;19931;-68
2021/01/25 15:17:30;;;;;;;;;;;;;;;;;;5068059;28;20057;-66
2021/01/25 15:19:57;;;;;;;;;;;;;;;;;;5066815;28;19931;-68
2021/01/25 15:22:23;;;;;;;;;;;;;;;;;;5069433;28;20333;-66
2021/01/25 15:24:50;;;;;;;;;;;;;;;;;;5063071;28;20322;-68
2021/01/25 15:27:16;;;;;;;;;;;;;;;;;;5065791;28;19930;-69
2021/01/25 15:29:43;;;;;;;;;;;;;;;;;;5068075;28;19932;-68
2021/01/25 15:32:09;;;;;;;;;;;;;;;;;;5068360;28;20371;-65
2021/01/25 15:34:36;;;;;;;;;;;;;;;;;;5068205;28;19932;-67
2021/01/25 15:37:02;;;;;;;;;;;;;;;;;;5070511;28;20011;-65
2021/01/25 15:39:29;;;;;;;;;;;;;;;;;;5069204;28;19929;-68
2021/01/25 15:41:55;;;;;;;;;;;;;;;;;;5065936;28;19924;-67
2021/01/25 15:44:22;;;;;;;;;;;;;;;;;;5069462;28;20380;-67
2021/01/25 15:46:48;;;;;;;;;;;;;;;;;;5068232;28;20282;-66
2021/01/25 15:49:15;;;;;;;;;;;;;;;;;;5068716;28;19925;-66
2021/01/25 15:51:42;;;;;;;;;;;;;;;;;;5068073;28;19963;-68
2021/01/25 15:54:08;;;;;;;;;;;;;;;;;;5070315;28;19970;-66
2021/01/25 15:56:36;;;;;;;;;;;;;;;;;;5065284;28;19931;-69
2021/01/25 15:59:03;;;;;;;;;;;;;;;;;;5070277;28;19967;-67
2021/01/25 16:01:29;;;;;;;;;;;;;;;;;;5070060;28;20269;-68
2021/01/25 16:03:56;;;;;;;;;;;;;;;;;;5069992;28;20024;-65
2021/01/25 16:06:22;;;;;;;;;;;;;;;;;;5067921;28;19928;-66
2021/01/25 16:08:49;;;;;;;;;;;;;;;;;;5064832;28;19935;-66
2021/01/25 16:11:15;;;;;;;;;;;;;;;;;;5065113;28;20015;-67
2021/01/25 16:13:42;;;;;;;;;;;;;;;;;;5069443;28;19924;-66
2021/01/25 16:16:09;;;;;;;;;;;;;;;;;;5062848;28;20500;-66
2021/01/25 16:18:35;;;;;;;;;;;;;;;;;;5064173;28;20033;-69
2021/01/25 16:21:02;;;;;;;;;;;;;;;;;;5068810;28;19924;-66
2021/01/25 16:23:28;;;;;;;;;;;;;;;;;;5068258;28;19933;-66
2021/01/25 16:25:55;;;;;;;;;;;;;;;;;;5065199;28;20026;-66
2021/01/25 16:28:21;;;;;;;;;;;;;;;;;;5070414;28;19924;-65
2021/01/25 16:30:48;;;;;;;;;;;;;;;;;;5069154;28;19925;-66
2021/01/25 16:33:15;;;;;;;;;;;;;;;;;;5069180;28;20023;-66
2021/01/25 16:35:41;;;;;;;;;;;;;;;;;;5067862;28;19931;-66
2021/01/25 16:38:08;;;;;;;;;;;;;;;;;;5071249;28;20000;-67
2021/01/25 16:40:34;;;;;;;;;;;;;;;;;;5072170;28;20466;-67